createdAt,value
2022-10-28T00:00:53.549Z,99740.03
2022-10-28T00:03:21.750Z,99739.97
2022-10-28T00:05:49.609Z,99735.53
2022-10-28T00:08:19.632Z,99737.91
2022-10-28T00:10:47.215Z,99742.19
2022-10-28T00:13:15.013Z,99745.84
2022-10-28T00:15:45.703Z,99737.97
2022-10-28T00:18:14.752Z,99733.59
2022-10-28T00:20:42.418Z,99731.09
2022-10-28T00:23:11.926Z,99732.81
2022-10-28T00:25:39.799Z,99734.38
2022-10-28T00:28:07.452Z,99738.59
2022-10-28T00:30:35.131Z,99742.03
2022-10-28T00:33:02.704Z,99741.75
2022-10-28T00:35:31.794Z,99740.09
2022-10-28T00:37:59.569Z,99723.34
2022-10-28T00:40:27.335Z,99720.84
2022-10-28T00:42:55.526Z,99729.59
2022-10-28T00:45:23.884Z,99723.28
2022-10-28T00:47:56.082Z,99720.63
2022-10-28T00:50:42.395Z,99724.63
2022-10-28T00:53:12.460Z,99728.63
2022-10-28T00:55:40.089Z,99718.31
2022-10-28T00:58:08.595Z,99725.56
2022-10-28T01:00:39.622Z,99721.97
2022-10-28T01:03:07.530Z,99726.50
2022-10-28T01:05:39.703Z,99726.50
2022-10-28T01:08:07.988Z,99721.19
2022-10-28T01:10:51.384Z,99729.06
2022-10-28T01:13:24.717Z,99730.63
2022-10-28T01:15:56.836Z,99731.56
2022-10-28T01:18:30.037Z,99724.69
2022-10-28T01:21:28.359Z,99718.84
2022-10-28T01:24:07.467Z,99721.50
2022-10-28T01:26:53.530Z,99722.50
2022-10-28T01:29:59.893Z,99716.34
2022-10-28T01:32:32.974Z,99715.31
2022-10-28T01:35:10.802Z,99708.16
2022-10-28T01:37:44.564Z,99711.66
2022-10-28T01:40:17.704Z,99703.94
2022-10-28T01:42:47.960Z,99704.66
2022-10-28T01:45:18.464Z,99704.50
2022-10-28T01:47:52.592Z,99703.56
2022-10-28T01:50:25.733Z,99699.66
2022-10-28T01:52:54.753Z,99696.50
2022-10-28T01:55:26.644Z,99692.84
2022-10-28T01:57:56.681Z,99704.47
2022-10-28T02:00:24.494Z,99702.16
2022-10-28T02:02:54.676Z,99699.66
2022-10-28T02:05:42.657Z,99697.22
2022-10-28T02:08:24.224Z,99697.50
2022-10-28T02:11:01.391Z,99678.38
2022-10-28T02:13:35.867Z,99673.94
2022-10-28T02:16:08.929Z,99679.88
2022-10-28T02:18:43.759Z,99674.66
2022-10-28T02:21:15.459Z,99676.38
2022-10-28T02:23:46.155Z,99677.38
2022-10-28T02:26:17.518Z,99674.72
2022-10-28T02:28:50.854Z,99665.78
2022-10-28T02:31:21.795Z,99672.09
2022-10-28T02:33:52.972Z,99667.84
2022-10-28T02:36:23.296Z,99658.91
2022-10-28T02:38:51.743Z,99649.19
2022-10-28T02:41:21.990Z,99643.25
2022-10-28T02:43:53.088Z,99647.97
2022-10-28T02:46:20.908Z,99644.47
2022-10-28T02:48:52.631Z,99650.75
2022-10-28T02:51:23.056Z,99634.22
2022-10-28T02:54:01.470Z,99641.25
2022-10-28T02:56:31.437Z,99629.56
2022-10-28T02:58:59.022Z,99629.13
2022-10-28T03:01:26.734Z,99640.59
2022-10-28T03:03:55.716Z,99637.16
2022-10-28T03:06:23.313Z,99634.66
2022-10-28T03:08:51.103Z,99636.22
2022-10-28T03:11:20.092Z,99641.09
2022-10-28T03:13:47.662Z,99644.53
2022-10-28T03:16:15.399Z,99665.94
2022-10-28T03:18:43.214Z,99675.81
2022-10-28T03:21:12.175Z,99674.59
2022-10-28T03:23:39.679Z,99660.47
2022-10-28T03:26:07.339Z,99655.34
2022-10-28T03:28:34.888Z,99658.75
2022-10-28T03:31:02.563Z,99658.84
2022-10-28T03:33:30.135Z,99661.34
2022-10-28T03:35:57.743Z,99651.69
2022-10-28T03:38:26.663Z,99654.84
2022-10-28T03:40:54.232Z,99666.38
2022-10-28T03:43:21.789Z,99661.88
2022-10-28T03:45:49.701Z,99655.78
2022-10-28T03:48:17.417Z,99646.53
2022-10-28T03:50:45.022Z,99646.75
2022-10-28T03:53:12.575Z,99643.50
2022-10-28T03:55:41.503Z,99645.53
2022-10-28T03:58:09.029Z,99648.03
2022-10-28T04:00:36.619Z,99650.09
2022-10-28T04:03:04.194Z,99646.47
2022-10-28T04:05:31.775Z,99648.31
2022-10-28T04:07:59.373Z,99643.59
2022-10-28T04:10:26.988Z,99650.91
2022-10-28T04:13:00.746Z,99646.97
2022-10-28T04:15:28.357Z,99641.09
2022-10-28T04:17:55.950Z,99646.81
2022-10-28T04:20:23.629Z,99646.47
2022-10-28T04:22:54.557Z,99650.97
2022-10-28T04:25:25.438Z,99634.72
2022-10-28T04:27:53.282Z,99639.31
2022-10-28T04:30:22.636Z,99633.94
2022-10-28T04:32:50.202Z,99638.66
2022-10-28T04:35:18.105Z,99643.31
2022-10-28T04:37:45.700Z,99635.28
2022-10-28T04:40:13.977Z,99646.72
2022-10-28T04:42:41.544Z,99644.22
2022-10-28T04:45:09.778Z,99637.63
2022-10-28T04:47:38.702Z,99634.13
2022-10-28T04:50:07.331Z,99628.13
2022-10-28T04:52:34.910Z,99641.22
2022-10-28T04:55:02.542Z,99634.41
2022-10-28T04:57:30.100Z,99628.19
2022-10-28T04:59:57.646Z,99628.25
2022-10-28T05:02:25.510Z,99627.19
2022-10-28T05:04:54.671Z,99621.03
2022-10-28T05:07:23.574Z,99615.16
2022-10-28T05:09:51.329Z,99598.44
2022-10-28T05:12:18.906Z,99611.38
2022-10-28T05:14:48.893Z,99604.16
2022-10-28T05:17:17.669Z,99602.31
2022-10-28T05:19:45.437Z,99595.53
2022-10-28T05:22:14.398Z,99590.09
2022-10-28T05:24:42.100Z,99595.53
2022-10-28T05:27:10.060Z,99608.03
2022-10-28T05:29:38.119Z,99594.59
2022-10-28T05:32:08.797Z,99591.88
2022-10-28T05:34:36.479Z,99584.16
2022-10-28T05:37:04.132Z,99599.31
2022-10-28T05:39:33.544Z,99600.31
2022-10-28T05:42:01.272Z,99594.22
2022-10-28T05:44:29.133Z,99594.75
2022-10-28T05:46:56.946Z,99599.25
2022-10-28T05:49:24.495Z,99601.09
2022-10-28T05:51:52.195Z,99602.25
2022-10-28T05:54:20.347Z,99608.13
2022-10-28T05:56:49.332Z,99590.31
2022-10-28T05:59:16.863Z,99597.16
2022-10-28T06:01:44.511Z,99596.38
2022-10-28T06:04:12.151Z,99606.81
2022-10-28T06:06:39.775Z,99605.31
2022-10-28T06:09:07.365Z,99616.13
2022-10-28T06:11:34.015Z,99614.25
2022-10-28T06:14:03.034Z,99614.41
2022-10-28T06:16:30.578Z,99620.41
2022-10-28T06:18:58.178Z,99623.34
2022-10-28T06:21:26.427Z,99612.56
2022-10-28T06:23:54.186Z,99619.91
2022-10-28T06:26:21.919Z,99610.41
2022-10-28T06:28:49.517Z,99618.47
2022-10-28T06:31:18.791Z,99614.19
2022-10-28T06:33:46.591Z,99616.63
2022-10-28T06:36:15.357Z,99612.53
2022-10-28T06:38:43.387Z,99625.34
2022-10-28T06:41:11.285Z,99627.22
2022-10-28T06:43:39.260Z,99629.00
2022-10-28T06:46:06.823Z,99629.22
2022-10-28T06:48:37.232Z,99629.94
2022-10-28T06:51:05.079Z,99628.94
2022-10-28T06:53:32.938Z,99633.28
2022-10-28T06:56:00.676Z,99632.88
2022-10-28T06:58:28.556Z,99639.31
2022-10-28T07:00:56.848Z,99649.59
2022-10-28T07:03:24.715Z,99654.63
2022-10-28T07:05:54.055Z,99644.16
2022-10-28T07:08:22.022Z,99644.25
2022-10-28T07:10:56.014Z,99643.31
2022-10-28T07:13:23.913Z,99656.34
2022-10-28T07:15:53.478Z,99648.09
2022-10-28T07:18:21.502Z,99646.19
2022-10-28T07:20:49.593Z,99654.84
2022-10-28T07:23:19.033Z,99648.59
2022-10-28T07:28:21.581Z,99649.31
2022-10-28T07:30:49.362Z,99651.81
2022-10-28T07:33:16.948Z,99651.53
2022-10-28T07:35:44.696Z,99651.41
2022-10-28T07:38:12.595Z,99653.06
2022-10-28T07:40:41.716Z,99652.69
2022-10-28T07:43:09.311Z,99654.28
2022-10-28T07:45:39.681Z,99652.09
2022-10-28T07:48:08.093Z,99653.38
2022-10-28T07:50:35.998Z,99663.44
2022-10-28T07:53:03.766Z,99650.19
2022-10-28T07:55:31.562Z,99659.41
2022-10-28T07:58:00.984Z,99661.13
2022-10-28T08:00:28.858Z,99670.50
2022-10-28T08:02:56.429Z,99665.41
2022-10-28T08:05:24.041Z,99663.00
2022-10-28T08:07:51.925Z,99670.09
2022-10-28T08:10:19.947Z,99662.38
2022-10-28T08:12:47.533Z,99662.50
2022-10-28T08:15:18.247Z,99663.28
2022-10-28T08:17:45.941Z,99661.03
2022-10-28T08:20:13.567Z,99667.22
2022-10-28T08:22:41.093Z,99668.13
2022-10-28T08:25:09.574Z,99674.78
2022-10-28T08:27:37.198Z,99682.03
2022-10-28T08:30:05.816Z,99683.53
2022-10-28T08:32:34.871Z,99685.41
2022-10-28T08:35:02.727Z,99682.03
2022-10-28T08:37:30.344Z,99692.34
2022-10-28T08:39:58.172Z,99681.06
2022-10-28T08:42:34.673Z,99680.41
2022-10-28T08:45:15.879Z,99671.53
2022-10-28T08:47:51.728Z,99675.16
2022-10-28T08:50:22.002Z,99675.25
2022-10-28T08:52:52.994Z,99670.19
2022-10-28T08:55:22.532Z,99679.34
2022-10-28T08:57:53.032Z,99671.56
2022-10-28T09:00:24.232Z,99669.66
2022-10-28T09:03:04.599Z,99669.59
2022-10-28T09:05:32.323Z,99672.31
2022-10-28T09:08:00.443Z,99679.66
2022-10-28T09:10:49.616Z,99678.88
2022-10-28T09:13:24.792Z,99668.66
2022-10-28T09:15:58.651Z,99663.94
2022-10-28T09:18:47.184Z,99661.38
2022-10-28T09:21:18.198Z,99663.84
2022-10-28T09:23:50.350Z,99658.91
2022-10-28T09:26:24.445Z,99655.25
2022-10-28T09:29:00.031Z,99664.66
2022-10-28T09:31:32.300Z,99672.13
2022-10-28T09:34:18.663Z,99668.22
2022-10-28T09:36:50.168Z,99672.00
2022-10-28T09:39:22.836Z,99676.63
2022-10-28T09:41:55.162Z,99668.72
2022-10-28T09:44:27.884Z,99658.94
2022-10-28T09:46:58.303Z,99658.16
2022-10-28T09:49:29.836Z,99665.34
2022-10-28T09:52:02.631Z,99665.75
2022-10-28T09:54:34.486Z,99671.75
2022-10-28T09:57:03.028Z,99672.63
2022-10-28T09:59:30.796Z,99673.69
2022-10-28T10:01:58.606Z,99670.91
2022-10-28T10:04:31.247Z,99672.22
2022-10-28T10:07:00.699Z,99676.38
2022-10-28T10:09:29.800Z,99669.13
2022-10-28T10:12:01.576Z,99667.50
2022-10-28T10:14:32.143Z,99663.59
2022-10-28T10:17:01.638Z,99664.31
2022-10-28T10:20:00.375Z,99667.34
2022-10-28T10:22:31.160Z,99657.91
2022-10-28T10:24:59.322Z,99660.06
2022-10-28T10:27:27.721Z,99658.66
2022-10-28T10:29:55.888Z,99661.97
2022-10-28T10:32:26.680Z,99654.28
2022-10-28T10:35:01.474Z,99653.72
2022-10-28T10:37:30.683Z,99645.41
2022-10-28T10:40:18.510Z,99653.31
2022-10-28T10:42:57.438Z,99647.53
2022-10-28T10:45:33.967Z,99652.25
2022-10-28T10:48:13.125Z,99647.41
2022-10-28T10:50:43.811Z,99656.59
2022-10-28T10:53:22.935Z,99649.31
2022-10-28T10:55:52.937Z,99651.84
2022-10-28T10:58:22.662Z,99651.25
2022-10-28T11:00:52.068Z,99648.47
2022-10-28T11:03:22.821Z,99647.88
2022-10-28T11:06:05.419Z,99638.22
2022-10-28T11:08:40.587Z,99643.50
2022-10-28T11:11:13.097Z,99633.44
2022-10-28T11:13:45.178Z,99636.44
2022-10-28T11:16:22.142Z,99624.25
2022-10-28T11:18:51.666Z,99617.13
2022-10-28T11:21:45.410Z,99617.66
2022-10-28T11:24:25.777Z,99608.53
2022-10-28T11:27:00.699Z,99616.19
2022-10-28T11:29:28.457Z,99603.59
2022-10-28T11:32:23.329Z,99604.34
2022-10-28T11:34:59.830Z,99604.72
2022-10-28T11:37:40.033Z,99609.63
2022-10-28T11:40:16.917Z,99610.28
2022-10-28T11:42:49.740Z,99614.72
2022-10-28T11:45:23.349Z,99603.53
2022-10-28T11:48:02.704Z,99588.47
2022-10-28T11:50:36.807Z,99592.38
2022-10-28T11:53:22.753Z,99589.34
2022-10-28T11:55:55.150Z,99581.03
2022-10-28T11:58:32.411Z,99578.63
2022-10-28T12:01:11.708Z,99590.03
2022-10-28T12:03:58.756Z,99583.94
2022-10-28T12:06:38.268Z,99582.63
2022-10-28T12:09:14.112Z,99565.84
2022-10-28T12:11:51.002Z,99570.34
2022-10-28T12:14:23.295Z,99563.16
2022-10-28T12:16:56.777Z,99566.38
2022-10-28T12:19:28.804Z,99560.38
2022-10-28T12:22:01.316Z,99565.63
2022-10-28T12:24:32.387Z,99566.22
2022-10-28T12:27:02.683Z,99562.66
2022-10-28T12:29:33.552Z,99555.22
2022-10-28T12:32:04.284Z,99550.63
2022-10-28T12:37:07.721Z,99547.88
2022-10-28T12:39:41.169Z,99551.09
2022-10-28T12:42:14.016Z,99554.00
2022-10-28T12:44:42.154Z,99543.16
2022-10-28T12:47:17.601Z,99546.81
2022-10-28T12:49:57.503Z,99550.47
2022-10-28T12:52:33.775Z,99550.84
2022-10-28T12:55:04.766Z,99547.44
2022-10-28T12:57:34.420Z,99547.31
2022-10-28T13:00:05.762Z,99546.56
2022-10-28T13:02:39.471Z,99549.56
2022-10-28T13:05:07.945Z,99549.06
2022-10-28T13:07:53.533Z,99539.16
2022-10-28T13:10:32.767Z,99541.19
2022-10-28T13:13:27.145Z,99544.28
2022-10-28T13:16:11.620Z,99550.97
2022-10-28T13:19:21.905Z,99540.22
2022-10-28T13:22:05.848Z,99537.81
2022-10-28T13:24:37.191Z,99531.44
2022-10-28T13:27:06.489Z,99524.78
2022-10-28T13:29:35.813Z,99533.97
2022-10-28T13:32:03.609Z,99534.13
2022-10-28T13:34:33.109Z,99533.91
2022-10-28T13:37:03.362Z,99539.59
2022-10-28T13:39:43.977Z,99527.56
2022-10-28T13:42:56.746Z,99531.16
2022-10-28T13:45:48.955Z,99531.09
2022-10-28T13:48:45.000Z,99529.00
2022-10-28T13:51:34.113Z,99532.94
2022-10-28T13:54:01.950Z,99530.91
2022-10-28T13:59:21.742Z,99528.78
2022-10-28T14:02:01.312Z,99523.41
2022-10-28T14:04:37.322Z,99525.44
2022-10-28T14:07:21.458Z,99529.91
2022-10-28T14:09:50.931Z,99524.69
2022-10-28T14:12:25.992Z,99532.38
2022-10-28T14:15:03.414Z,99528.09
2022-10-28T14:17:36.961Z,99530.72
2022-10-28T14:20:07.919Z,99536.19
2022-10-28T14:22:37.249Z,99523.63
2022-10-28T14:25:40.085Z,99529.41
2022-10-28T14:28:41.195Z,99531.03
2022-10-28T14:31:34.887Z,99533.41
2022-10-28T14:34:39.314Z,99533.06
2022-10-28T14:37:23.317Z,99542.28
2022-10-28T14:40:16.837Z,99540.63
2022-10-28T14:43:00.445Z,99536.03
2022-10-28T14:45:35.914Z,99529.97
2022-10-28T14:48:20.058Z,99529.13
2022-10-28T14:50:49.022Z,99533.91
2022-10-28T14:53:23.498Z,99543.06
2022-10-28T14:55:58.942Z,99544.53
2022-10-28T14:58:30.087Z,99540.53
2022-10-28T15:01:09.228Z,99550.41
2022-10-28T15:03:37.779Z,99541.75
2022-10-28T15:06:23.578Z,99543.34
2022-10-28T15:08:52.993Z,99545.41
2022-10-28T15:11:20.861Z,99539.81
2022-10-28T15:13:50.721Z,99539.28
2022-10-28T15:16:21.255Z,99540.38
2022-10-28T15:18:49.884Z,99535.53
2022-10-28T15:21:19.079Z,99541.84
2022-10-28T15:23:47.669Z,99548.78
2022-10-28T15:26:17.707Z,99538.66
2022-10-28T15:28:45.332Z,99545.97
2022-10-28T15:31:13.148Z,99535.38
2022-10-28T15:33:41.665Z,99544.13
2022-10-28T15:36:16.683Z,99543.75
2022-10-28T15:38:46.064Z,99540.19
2022-10-28T15:41:49.511Z,99539.19
2022-10-28T15:44:29.585Z,99539.66
2022-10-28T15:46:58.389Z,99539.81
2022-10-28T15:49:36.730Z,99544.78
2022-10-28T15:52:23.188Z,99549.63
2022-10-28T15:54:57.507Z,99546.44
2022-10-28T15:57:28.636Z,99552.63
2022-10-28T16:00:24.660Z,99552.97
2022-10-28T16:02:56.267Z,99557.06
2022-10-28T16:05:54.253Z,99557.31
2022-10-28T16:08:25.238Z,99553.47
2022-10-28T16:10:56.030Z,99559.69
2022-10-28T16:13:28.050Z,99563.22
2022-10-28T16:15:58.698Z,99570.19
2022-10-28T16:18:28.100Z,99563.00
2022-10-28T16:20:56.429Z,99559.06
2022-10-28T16:23:25.290Z,99547.44
2022-10-28T16:25:52.971Z,99566.44
2022-10-28T16:28:26.588Z,99564.84
2022-10-28T16:30:55.767Z,99555.56
2022-10-28T16:33:28.245Z,99564.56
2022-10-28T16:35:55.997Z,99564.09
2022-10-28T16:38:23.632Z,99568.50
2022-10-28T16:40:52.436Z,99565.75
2022-10-28T16:43:21.815Z,99570.00
2022-10-28T16:45:51.413Z,99563.81
2022-10-28T16:48:20.589Z,99579.09
2022-10-28T16:50:52.366Z,99574.84
2022-10-28T16:53:20.276Z,99577.63
2022-10-28T16:55:47.907Z,99589.81
2022-10-28T16:58:15.449Z,99592.81
2022-10-28T17:00:43.377Z,99583.22
2022-10-28T17:03:14.632Z,99587.19
2022-10-28T17:05:43.820Z,99586.50
2022-10-28T17:08:11.776Z,99592.06
2022-10-28T17:10:40.812Z,99595.19
2022-10-28T17:13:09.053Z,99595.59
2022-10-28T17:15:36.683Z,99589.19
2022-10-28T17:18:04.472Z,99592.41
2022-10-28T17:20:33.640Z,99594.09
2022-10-28T17:23:01.249Z,99590.56
2022-10-28T17:25:29.120Z,99596.34
2022-10-28T17:27:57.196Z,99602.22
2022-10-28T17:30:25.184Z,99605.97
2022-10-28T17:32:54.842Z,99596.34
2022-10-28T17:35:23.555Z,99604.59
2022-10-28T17:37:52.778Z,99605.22
2022-10-28T17:40:20.702Z,99614.50
2022-10-28T17:42:48.256Z,99612.78
2022-10-28T17:45:18.057Z,99621.13
2022-10-28T17:47:48.712Z,99615.34
2022-10-28T17:50:16.496Z,99624.09
2022-10-28T17:52:44.090Z,99627.28
2022-10-28T17:55:13.001Z,99627.84
2022-10-28T17:57:40.563Z,99640.75
2022-10-28T18:00:09.733Z,99620.03
2022-10-28T18:02:37.386Z,99610.31
2022-10-28T18:05:05.460Z,99631.56
2022-10-28T18:07:33.170Z,99627.28
2022-10-28T18:10:00.815Z,99635.59
2022-10-28T18:12:29.688Z,99643.06
2022-10-28T18:14:57.303Z,99637.28
2022-10-28T18:17:24.869Z,99632.66
2022-10-28T18:19:52.419Z,99636.66
2022-10-28T18:22:20.056Z,99635.47
2022-10-28T18:24:47.672Z,99629.63
2022-10-28T18:27:15.218Z,99636.88
2022-10-28T18:29:44.260Z,99630.09
2022-10-28T18:32:12.173Z,99638.19
2022-10-28T18:34:39.762Z,99638.78
2022-10-28T18:37:09.576Z,99638.03
2022-10-28T18:39:37.135Z,99638.91
2022-10-28T18:42:04.836Z,99638.94
2022-10-28T18:44:32.933Z,99638.94
2022-10-28T18:47:02.028Z,99636.56
2022-10-28T18:49:32.794Z,99633.16
2022-10-28T18:52:00.999Z,99632.38
2022-10-28T18:54:28.595Z,99630.88
2022-10-28T18:56:57.669Z,99630.13
2022-10-28T18:59:27.420Z,99633.91
2022-10-28T19:01:55.091Z,99638.41
2022-10-28T19:04:24.402Z,99640.97
2022-10-28T19:06:52.100Z,99645.06
2022-10-28T19:09:19.723Z,99644.19
2022-10-28T19:11:47.274Z,99660.75
2022-10-28T19:14:15.107Z,99667.59
2022-10-28T19:16:42.660Z,99664.19
2022-10-28T19:19:10.237Z,99659.53
2022-10-28T19:21:39.223Z,99654.94
2022-10-28T19:24:07.390Z,99658.75
2022-10-28T19:26:35.409Z,99654.63
2022-10-28T19:29:06.987Z,99652.81
2022-10-28T19:31:40.254Z,99651.25
2022-10-28T19:34:10.738Z,99647.63
2022-10-28T19:36:39.726Z,99653.16
2022-10-28T19:39:07.394Z,99655.25
2022-10-28T19:41:35.074Z,99664.09
2022-10-28T19:44:03.474Z,99663.03
2022-10-28T19:46:32.483Z,99660.94
2022-10-28T19:49:01.242Z,99669.56
2022-10-28T19:51:30.912Z,99663.09
2022-10-28T19:54:01.846Z,99663.66
2022-10-28T19:56:31.321Z,99663.28
2022-10-28T19:59:00.162Z,99666.97
2022-10-28T20:01:30.284Z,99661.16
2022-10-28T20:03:58.362Z,99668.47
2022-10-28T20:06:27.450Z,99674.06
2022-10-28T20:08:55.333Z,99681.38
2022-10-28T20:11:26.700Z,99688.78
2022-10-28T20:13:55.563Z,99685.63
2022-10-28T20:16:24.111Z,99686.84
2022-10-28T20:18:52.356Z,99651.53
2022-10-28T20:21:23.686Z,99680.16
2022-10-28T20:23:54.733Z,99673.13
2022-10-28T20:26:28.144Z,99681.03
2022-10-28T20:28:56.804Z,99691.59
2022-10-28T20:31:26.918Z,99685.84
2022-10-28T20:33:56.957Z,99683.28
2022-10-28T20:36:27.077Z,99686.13
2022-10-28T20:38:55.870Z,99686.28
2022-10-28T20:41:29.272Z,99693.06
2022-10-28T20:43:57.887Z,99695.63
2022-10-28T20:46:26.697Z,99698.56
2022-10-28T20:48:54.982Z,99704.31
2022-10-28T20:51:23.782Z,99714.34
2022-10-28T20:53:52.373Z,99713.06
2022-10-28T20:56:25.193Z,99723.03
2022-10-28T20:58:55.907Z,99711.09
2022-10-28T21:01:25.742Z,99724.97
2022-10-28T21:03:55.887Z,99722.41
2022-10-28T21:06:24.510Z,99735.53
2022-10-28T21:08:53.609Z,99724.75
2022-10-28T21:11:23.742Z,99717.34
2022-10-28T21:13:53.209Z,99720.69
2022-10-28T21:16:23.124Z,99712.72
2022-10-28T21:18:51.607Z,99707.91
2022-10-28T21:21:20.088Z,99702.78
2022-10-28T21:23:47.742Z,99706.97
2022-10-28T21:26:15.643Z,99711.00
2022-10-28T21:28:43.515Z,99713.06
2022-10-28T21:31:12.954Z,99718.47
2022-10-28T21:33:43.108Z,99719.59
2022-10-28T21:36:13.002Z,99718.13
2022-10-28T21:38:40.778Z,99720.69
2022-10-28T21:41:10.972Z,99725.94
2022-10-28T21:43:39.837Z,99728.41
2022-10-28T21:46:08.085Z,99736.47
2022-10-28T21:48:36.561Z,99738.28
2022-10-28T21:51:11.646Z,99740.50
2022-10-28T21:53:42.701Z,99747.63
2022-10-28T21:56:16.687Z,99740.00
2022-10-28T21:58:46.015Z,99751.22
2022-10-28T22:01:15.362Z,99742.56
2022-10-28T22:03:42.964Z,99744.44
2022-10-28T22:06:12.245Z,99741.09
2022-10-28T22:08:39.875Z,99736.81
2022-10-28T22:11:08.566Z,99732.25
2022-10-28T22:13:36.255Z,99736.81
2022-10-28T22:16:05.812Z,99733.47
2022-10-28T22:18:34.525Z,99738.00
2022-10-28T22:21:05.647Z,99732.06
2022-10-28T22:23:34.901Z,99720.94
2022-10-28T22:26:02.936Z,99719.91
2022-10-28T22:28:31.370Z,99710.66
2022-10-28T22:31:00.123Z,99719.47
2022-10-28T22:33:27.807Z,99713.41
2022-10-28T22:35:58.756Z,99707.47
2022-10-28T22:38:26.505Z,99708.84
2022-10-28T22:41:03.874Z,99707.03
2022-10-28T22:43:32.331Z,99708.50
2022-10-28T22:46:00.606Z,99703.25
2022-10-28T22:48:28.441Z,99707.91
2022-10-28T22:50:56.933Z,99703.69
2022-10-28T22:53:24.801Z,99699.75
2022-10-28T22:55:53.604Z,99706.88
2022-10-28T22:58:23.462Z,99702.13
2022-10-28T23:00:51.498Z,99697.56
2022-10-28T23:03:19.251Z,99695.16
2022-10-28T23:05:46.985Z,99705.56
2022-10-28T23:08:18.124Z,99697.50
2022-10-28T23:10:45.941Z,99707.28
2022-10-28T23:13:14.011Z,99699.03
2022-10-28T23:15:43.076Z,99695.22
2022-10-28T23:18:10.767Z,99696.38
2022-10-28T23:20:41.312Z,99700.66
2022-10-28T23:23:08.985Z,99702.72
2022-10-28T23:25:36.951Z,99707.94
2022-10-28T23:28:05.978Z,99704.44
2022-10-28T23:30:33.628Z,99707.53
2022-10-28T23:33:02.766Z,99705.81
2022-10-28T23:35:30.369Z,99697.25
2022-10-28T23:37:59.935Z,99694.91
2022-10-28T23:40:27.611Z,99690.91
2022-10-28T23:42:55.704Z,99692.63
2022-10-28T23:45:24.989Z,99691.75
2022-10-28T23:48:01.989Z,99689.00
2022-10-28T23:50:48.244Z,99689.69
2022-10-28T23:53:24.786Z,99696.31
2022-10-28T23:56:05.544Z,99699.38
2022-10-28T23:58:37.834Z,99700.81
